createdAt,value
2019-01-15T00:01:24.905Z,6.42
2019-01-15T00:03:28.206Z,8.53
2019-01-15T00:05:29.616Z,5.70
2019-01-15T00:07:30.986Z,5.55
2019-01-15T00:09:32.414Z,10.15
2019-01-15T00:11:33.795Z,7.03
2019-01-15T00:13:35.162Z,8.45
2019-01-15T00:15:36.528Z,8.03
2019-01-15T00:17:37.961Z,11.20
2019-01-15T00:19:39.388Z,15.45
2019-01-15T00:21:40.803Z,11.05
2019-01-15T00:23:42.139Z,8.30
2019-01-15T00:25:43.524Z,7.83
2019-01-15T00:27:44.976Z,10.65
2019-01-15T00:29:46.346Z,9.85
2019-01-15T00:31:47.758Z,7.95
2019-01-15T00:33:49.159Z,9.20
2019-01-15T00:35:50.543Z,8.15
2019-01-15T00:37:53.870Z,8.05
2019-01-15T00:39:55.258Z,7.62
2019-01-15T00:41:56.650Z,12.18
2019-01-15T00:43:58.017Z,6.15
2019-01-15T00:45:59.437Z,13.30
2019-01-15T00:48:00.794Z,5.33
2019-01-15T00:50:06.609Z,4.85
2019-01-15T00:52:08.066Z,10.63
2019-01-15T00:54:09.403Z,7.60
2019-01-15T00:56:10.826Z,8.25
2019-01-15T00:58:12.478Z,12.25
2019-01-15T01:00:20.858Z,12.85
2019-01-15T01:02:22.219Z,6.97
2019-01-15T01:04:23.657Z,7.87
2019-01-15T01:06:25.086Z,10.23
2019-01-15T01:08:26.539Z,9.70
2019-01-15T01:10:27.929Z,8.55
2019-01-15T01:12:29.322Z,7.67
2019-01-15T01:14:30.757Z,3.65
2019-01-15T01:16:32.179Z,4.45
2019-01-15T01:18:33.575Z,12.63
2019-01-15T01:20:35.108Z,11.85
2019-01-15T01:22:36.483Z,5.75
2019-01-15T01:24:37.865Z,5.53
2019-01-15T01:26:39.297Z,13.13
2019-01-15T01:28:40.683Z,10.50
2019-01-15T01:30:42.019Z,9.10
2019-01-15T01:32:43.592Z,11.97
2019-01-15T01:34:44.947Z,7.05
2019-01-15T01:36:46.329Z,6.45
2019-01-15T01:38:47.736Z,5.92
2019-01-15T01:40:49.187Z,12.88
2019-01-15T01:42:50.530Z,8.23
2019-01-15T01:44:51.947Z,7.45
2019-01-15T01:46:53.371Z,9.60
2019-01-15T01:48:54.759Z,6.30
2019-01-15T01:50:56.195Z,11.85
2019-01-15T01:52:57.596Z,10.82
2019-01-15T01:54:58.925Z,7.12
2019-01-15T01:57:00.354Z,8.20
2019-01-15T01:59:01.772Z,15.03
2019-01-15T02:01:03.567Z,11.15
2019-01-15T02:03:04.911Z,3.58
2019-01-15T02:05:06.375Z,7.28
2019-01-15T02:07:07.806Z,5.05
2019-01-15T02:09:09.178Z,7.58
2019-01-15T02:11:10.554Z,8.45
2019-01-15T02:13:11.950Z,9.93
2019-01-15T02:15:19.329Z,10.60
2019-01-15T02:17:20.661Z,8.15
2019-01-15T02:19:22.096Z,12.93
2019-01-15T02:21:23.533Z,9.25
2019-01-15T02:23:24.960Z,13.35
2019-01-15T02:25:26.361Z,11.45
2019-01-15T02:27:28.242Z,10.82
2019-01-15T02:29:29.635Z,8.08
2019-01-15T02:31:31.049Z,11.55
2019-01-15T02:33:32.389Z,6.30
2019-01-15T02:35:33.784Z,7.85
2019-01-15T02:37:35.194Z,9.25
2019-01-15T02:39:36.695Z,11.80
2019-01-15T02:41:38.295Z,5.80
2019-01-15T02:43:39.660Z,8.25
2019-01-15T02:45:41.124Z,9.63
2019-01-15T02:47:42.537Z,3.95
2019-01-15T02:49:44.115Z,6.50
2019-01-15T02:51:45.514Z,12.05
2019-01-15T02:53:47.084Z,7.92
2019-01-15T02:55:48.452Z,6.47
2019-01-15T02:57:49.879Z,9.98
2019-01-15T02:59:51.269Z,13.58
2019-01-15T03:01:52.598Z,9.78
2019-01-15T03:03:54.061Z,12.28
2019-01-15T03:05:55.562Z,11.55
2019-01-15T03:07:56.904Z,8.83
2019-01-15T03:09:58.268Z,8.25
2019-01-15T03:11:59.893Z,11.70
2019-01-15T03:14:01.224Z,6.17
2019-01-15T03:16:03.252Z,11.18
2019-01-15T03:18:04.737Z,9.10
2019-01-15T03:20:10.403Z,6.87
2019-01-15T03:22:11.811Z,10.08
2019-01-15T03:24:13.177Z,7.00
2019-01-15T03:26:14.587Z,12.53
2019-01-15T03:28:15.948Z,11.40
2019-01-15T03:30:21.948Z,6.55
2019-01-15T03:32:23.314Z,9.68
2019-01-15T03:34:24.679Z,9.13
2019-01-15T03:36:26.287Z,7.72
2019-01-15T03:38:27.653Z,9.53
2019-01-15T03:40:29.090Z,11.15
2019-01-15T03:42:30.519Z,12.53
2019-01-15T03:44:31.891Z,13.58
2019-01-15T03:46:33.236Z,9.05
2019-01-15T03:48:34.834Z,7.22
2019-01-15T03:50:36.190Z,9.73
2019-01-15T03:52:37.561Z,6.10
2019-01-15T03:54:38.965Z,5.95
2019-01-15T03:56:40.331Z,5.35
2019-01-15T03:58:41.727Z,10.60
2019-01-15T04:00:43.095Z,9.13
2019-01-15T04:02:45.210Z,8.45
2019-01-15T04:04:47.524Z,18.65
2019-01-15T04:06:48.853Z,5.00
2019-01-15T04:08:50.462Z,9.50
2019-01-15T04:10:51.833Z,7.40
2019-01-15T04:12:53.203Z,9.20
2019-01-15T04:14:54.597Z,8.33
2019-01-15T04:16:55.965Z,7.30
2019-01-15T04:18:57.359Z,6.28
2019-01-15T04:20:58.821Z,7.55
2019-01-15T04:23:00.258Z,14.45
2019-01-15T04:25:01.747Z,16.70
2019-01-15T04:27:03.625Z,13.22
2019-01-15T04:29:05.004Z,7.05
2019-01-15T04:31:06.362Z,9.03
2019-01-15T04:33:07.774Z,9.75
2019-01-15T04:35:09.451Z,5.95
2019-01-15T04:37:10.869Z,12.07
2019-01-15T04:39:12.401Z,7.75
2019-01-15T04:41:13.880Z,12.80
2019-01-15T04:43:19.952Z,11.43
2019-01-15T04:45:19.775Z,8.75
2019-01-15T04:47:21.123Z,9.30
2019-01-15T04:49:22.520Z,11.60
2019-01-15T04:51:24.074Z,9.03
2019-01-15T04:53:25.477Z,10.60
2019-01-15T04:55:26.831Z,11.05
2019-01-15T04:57:28.298Z,7.53
2019-01-15T04:59:30.197Z,9.98
2019-01-15T05:01:31.570Z,9.20
2019-01-15T05:03:32.991Z,14.23
2019-01-15T05:05:34.391Z,10.18
2019-01-15T05:07:36.036Z,7.65
2019-01-15T05:09:37.489Z,10.85
2019-01-15T05:11:38.899Z,11.25
2019-01-15T05:13:40.289Z,9.13
2019-01-15T05:15:41.710Z,17.37
2019-01-15T05:17:43.146Z,8.65
2019-01-15T05:19:44.512Z,8.55
2019-01-15T05:21:45.916Z,7.20
2019-01-15T05:23:47.276Z,9.28
2019-01-15T05:25:48.668Z,11.30
2019-01-15T05:27:50.184Z,11.30
2019-01-15T05:29:51.647Z,6.72
2019-01-15T05:31:53.034Z,11.38
2019-01-15T05:33:54.396Z,8.80
2019-01-15T05:35:55.766Z,6.00
2019-01-15T05:37:57.134Z,7.35
2019-01-15T05:39:58.840Z,11.60
2019-01-15T05:42:00.192Z,13.32
2019-01-15T05:44:01.680Z,11.97
2019-01-15T05:46:03.476Z,9.88
2019-01-15T05:48:09.379Z,7.90
2019-01-15T05:50:12.873Z,9.40
2019-01-15T05:52:14.493Z,8.28
2019-01-15T05:54:16.359Z,9.45
2019-01-15T05:56:17.746Z,9.73
2019-01-15T05:58:19.195Z,13.35
2019-01-15T06:00:20.526Z,6.97
2019-01-15T06:02:22.011Z,11.85
2019-01-15T06:04:23.360Z,7.37
2019-01-15T06:06:24.937Z,6.47
2019-01-15T06:08:26.318Z,9.85
2019-01-15T06:10:27.743Z,4.25
2019-01-15T06:12:29.174Z,11.10
2019-01-15T06:14:30.575Z,8.08
2019-01-15T06:16:32.024Z,10.60
2019-01-15T06:18:33.387Z,11.05
2019-01-15T06:20:34.971Z,5.90
2019-01-15T06:22:36.378Z,13.60
2019-01-15T06:24:37.832Z,4.95
2019-01-15T06:26:39.240Z,8.18
2019-01-15T06:28:40.957Z,10.70
2019-01-15T06:30:42.321Z,10.45
2019-01-15T06:32:43.672Z,5.70
2019-01-15T06:34:45.096Z,10.98
2019-01-15T06:36:46.457Z,8.05
2019-01-15T06:38:47.857Z,8.55
2019-01-15T06:40:49.293Z,10.23
2019-01-15T06:42:50.645Z,8.63
2019-01-15T06:44:52.109Z,6.90
2019-01-15T06:46:53.552Z,7.10
2019-01-15T06:48:54.953Z,9.45
2019-01-15T06:50:56.329Z,3.05
2019-01-15T06:52:57.774Z,7.35
2019-01-15T06:54:59.171Z,5.35
2019-01-15T06:57:00.610Z,9.13
2019-01-15T06:59:02.182Z,10.13
2019-01-15T07:01:03.762Z,6.08
2019-01-15T07:03:05.278Z,7.37
2019-01-15T07:05:08.399Z,11.75
2019-01-15T07:07:10.091Z,10.85
2019-01-15T07:09:11.543Z,6.58
2019-01-15T07:11:12.937Z,7.53
2019-01-15T07:13:14.366Z,10.50
2019-01-15T07:15:15.742Z,3.47
2019-01-15T07:17:17.156Z,5.40
2019-01-15T07:19:18.532Z,7.12
2019-01-15T07:21:19.992Z,3.72
2019-01-15T07:23:21.405Z,6.10
2019-01-15T07:25:26.210Z,7.33
2019-01-15T07:27:27.704Z,7.45
2019-01-15T07:29:29.114Z,5.10
2019-01-15T07:31:30.555Z,4.62
2019-01-15T07:33:31.935Z,3.08
2019-01-15T07:35:33.381Z,6.37
2019-01-15T07:37:34.788Z,5.22
2019-01-15T07:39:36.181Z,4.60
2019-01-15T07:41:37.593Z,7.95
2019-01-15T07:43:39.025Z,7.45
2019-01-15T07:45:40.404Z,9.20
2019-01-15T07:47:41.815Z,5.83
2019-01-15T07:49:43.414Z,4.05
2019-01-15T07:51:44.865Z,10.80
2019-01-15T07:53:46.221Z,6.33
2019-01-15T07:55:47.681Z,10.45
2019-01-15T07:57:49.200Z,10.78
2019-01-15T07:59:50.595Z,9.60
2019-01-15T08:01:52.504Z,5.37
2019-01-15T08:03:54.004Z,4.97
2019-01-15T08:05:55.383Z,7.70
2019-01-15T08:07:57.012Z,10.82
2019-01-15T08:09:58.352Z,4.47
2019-01-15T08:11:59.771Z,9.50
2019-01-15T08:14:01.179Z,7.33
2019-01-15T08:16:02.864Z,7.40
2019-01-15T08:18:04.282Z,8.13
2019-01-15T08:20:12.182Z,5.00
2019-01-15T08:22:13.589Z,3.95
2019-01-15T08:24:15.026Z,3.58
2019-01-15T08:26:16.467Z,8.05
2019-01-15T08:28:17.852Z,7.70
2019-01-15T08:30:26.290Z,10.40
2019-01-15T08:32:27.712Z,14.25
2019-01-15T08:34:29.056Z,7.92
2019-01-15T08:36:30.559Z,6.62
2019-01-15T08:38:32.237Z,7.53
2019-01-15T08:40:33.598Z,6.58
2019-01-15T08:42:34.984Z,8.53
2019-01-15T08:44:36.794Z,6.78
2019-01-15T08:46:38.189Z,5.90
2019-01-15T08:48:39.930Z,6.45
2019-01-15T08:50:41.428Z,9.73
2019-01-15T08:52:42.855Z,7.20
2019-01-15T08:54:44.225Z,9.55
2019-01-15T08:56:45.645Z,10.48
2019-01-15T08:58:47.094Z,3.35
2019-01-15T09:00:48.454Z,6.37
2019-01-15T09:02:49.824Z,6.72
2019-01-15T09:04:51.286Z,10.08
2019-01-15T09:06:52.644Z,9.03
2019-01-15T09:08:54.031Z,4.80
2019-01-15T09:10:55.425Z,11.22
2019-01-15T09:12:56.882Z,3.83
2019-01-15T09:14:58.283Z,4.85
2019-01-15T09:16:59.672Z,6.67
2019-01-15T09:19:01.232Z,9.60
2019-01-15T09:21:02.619Z,7.12
2019-01-15T09:23:04.000Z,4.67
2019-01-15T09:25:05.760Z,8.95
2019-01-15T09:27:07.286Z,14.53
2019-01-15T09:29:08.624Z,9.73
2019-01-15T09:31:10.008Z,8.55
2019-01-15T09:33:11.436Z,12.95
2019-01-15T09:35:12.892Z,6.42
2019-01-15T09:37:14.569Z,5.92
2019-01-15T09:39:16.026Z,10.93
2019-01-15T09:41:17.408Z,11.30
2019-01-15T09:43:18.771Z,13.20
2019-01-15T09:45:21.795Z,12.13
2019-01-15T09:47:23.160Z,5.95
2019-01-15T09:49:24.524Z,4.70
2019-01-15T09:51:25.920Z,8.78
2019-01-15T09:53:27.318Z,10.05
2019-01-15T09:55:28.661Z,9.58
2019-01-15T09:57:30.258Z,9.13
2019-01-15T09:59:31.650Z,13.18
2019-01-15T10:01:33.097Z,9.13
2019-01-15T10:03:34.505Z,9.58
2019-01-15T10:05:35.942Z,10.30
2019-01-15T10:07:37.307Z,8.15
2019-01-15T10:09:38.686Z,6.80
2019-01-15T10:11:40.100Z,7.95
2019-01-15T10:13:41.491Z,9.73
2019-01-15T10:15:42.901Z,12.68
2019-01-15T10:17:44.392Z,14.87
2019-01-15T10:19:46.050Z,13.30
2019-01-15T10:21:48.089Z,8.13
2019-01-15T10:23:49.458Z,7.78
2019-01-15T10:25:51.251Z,10.40
2019-01-15T10:27:53.698Z,7.95
2019-01-15T10:29:59.278Z,11.18
2019-01-15T10:32:31.363Z,15.53
2019-01-15T10:34:35.432Z,10.05
2019-01-15T10:36:36.482Z,10.70
2019-01-15T10:38:37.871Z,9.13
2019-01-15T10:40:39.237Z,7.70
2019-01-15T10:42:40.606Z,7.75
2019-01-15T10:44:48.473Z,12.45
2019-01-15T10:46:45.319Z,14.25
2019-01-15T10:48:46.735Z,10.68
2019-01-15T10:50:48.159Z,10.20
2019-01-15T10:52:49.536Z,9.03
2019-01-15T10:54:50.968Z,13.85
2019-01-15T10:56:52.348Z,11.08
2019-01-15T10:58:53.726Z,10.90
2019-01-15T11:00:55.234Z,13.13
2019-01-15T11:02:56.591Z,17.82
2019-01-15T11:04:57.967Z,11.15
2019-01-15T11:06:59.541Z,9.63
2019-01-15T11:09:00.941Z,12.98
2019-01-15T11:11:02.315Z,10.48
2019-01-15T11:13:04.097Z,12.58
2019-01-15T11:15:07.079Z,13.45
2019-01-15T11:17:08.468Z,15.35
2019-01-15T11:19:10.050Z,16.70
2019-01-15T11:21:11.544Z,12.18
2019-01-15T11:23:13.004Z,12.13
2019-01-15T11:25:14.494Z,14.70
2019-01-15T11:27:15.914Z,23.25
2019-01-15T11:29:17.271Z,12.65
2019-01-15T11:31:18.702Z,17.37
2019-01-15T11:33:20.121Z,17.73
2019-01-15T11:35:21.531Z,10.93
2019-01-15T11:37:22.908Z,12.37
2019-01-15T11:39:24.287Z,13.72
2019-01-15T11:41:25.796Z,11.05
2019-01-15T11:43:27.166Z,13.53
2019-01-15T11:45:29.429Z,15.90
2019-01-15T11:47:31.209Z,13.70
2019-01-15T11:49:32.572Z,15.03
2019-01-15T11:51:33.968Z,11.93
2019-01-15T11:53:35.364Z,19.95
2019-01-15T11:55:36.733Z,15.93
2019-01-15T11:57:38.148Z,13.03
2019-01-15T11:59:39.668Z,14.33
2019-01-15T12:01:41.630Z,14.83
2019-01-15T12:03:44.907Z,14.13
2019-01-15T12:05:53.865Z,15.55
2019-01-15T12:07:59.777Z,13.60
2019-01-15T12:10:03.498Z,16.97
2019-01-15T12:12:06.811Z,13.75
2019-01-15T12:14:26.469Z,16.37
2019-01-15T12:16:32.369Z,14.25
2019-01-15T12:18:38.554Z,17.15
2019-01-15T12:20:58.140Z,13.80
2019-01-15T12:23:01.515Z,14.50
2019-01-15T12:25:07.865Z,15.63
2019-01-15T12:27:20.044Z,17.67
2019-01-15T12:29:32.115Z,19.48
2019-01-15T12:31:44.056Z,16.23
2019-01-15T12:34:02.145Z,19.42
2019-01-15T12:36:23.522Z,20.65
2019-01-15T12:38:44.858Z,23.15
2019-01-15T12:40:48.142Z,17.50
2019-01-15T12:42:51.428Z,20.08
2019-01-15T12:45:03.375Z,20.65
2019-01-15T12:47:23.040Z,18.87
2019-01-15T12:49:42.573Z,23.80
2019-01-15T12:51:48.547Z,25.08
2019-01-15T12:54:00.865Z,23.07
2019-01-15T12:56:21.932Z,19.52
2019-01-15T12:58:41.700Z,18.30
2019-01-15T13:00:47.634Z,21.27
2019-01-15T13:02:56.574Z,21.20
2019-01-15T13:04:59.846Z,23.83
2019-01-15T13:07:12.098Z,20.68
2019-01-15T13:09:15.386Z,28.50
2019-01-15T13:11:24.678Z,23.42
2019-01-15T13:13:33.657Z,24.47
2019-01-15T13:15:39.576Z,21.70
2019-01-15T13:17:45.541Z,25.08
2019-01-15T13:20:05.344Z,22.10
2019-01-15T13:22:17.291Z,26.70
2019-01-15T13:24:20.557Z,25.20
2019-01-15T13:26:41.891Z,27.40
2019-01-15T13:28:54.475Z,23.85
2019-01-15T13:31:03.531Z,24.80
2019-01-15T13:33:15.824Z,28.87
2019-01-15T13:35:19.138Z,30.90
2019-01-15T13:37:31.456Z,31.23
2019-01-15T13:39:37.348Z,28.40
2019-01-15T13:41:43.555Z,26.35
2019-01-15T13:43:46.909Z,31.62
2019-01-15T13:46:00.727Z,32.25
2019-01-15T13:48:01.260Z,32.05
2019-01-15T13:50:24.763Z,31.82
2019-01-15T13:52:30.777Z,32.98
2019-01-15T13:54:36.846Z,29.15
2019-01-15T13:56:40.113Z,25.45
2019-01-15T13:59:01.250Z,36.00
2019-01-15T14:01:20.044Z,28.85
2019-01-15T14:03:26.085Z,33.40
2019-01-15T14:05:35.453Z,29.12
2019-01-15T14:07:55.317Z,29.50
2019-01-15T14:10:13.502Z,30.12
2019-01-15T14:12:16.765Z,33.75
2019-01-15T14:14:22.653Z,29.77
2019-01-15T14:16:34.733Z,32.03
2019-01-15T14:18:54.613Z,34.35
2019-01-15T14:20:57.917Z,40.63
2019-01-15T14:23:04.075Z,31.82
2019-01-15T14:25:09.960Z,31.37
2019-01-15T14:27:19.419Z,30.10
2019-01-15T14:29:34.479Z,45.15
2019-01-15T14:31:40.474Z,31.82
2019-01-15T14:33:46.456Z,36.75
2019-01-15T14:36:01.693Z,35.80
2019-01-15T14:38:14.839Z,35.90
2019-01-15T14:40:20.777Z,33.80
2019-01-15T14:42:40.350Z,29.40
2019-01-15T14:44:46.330Z,31.48
2019-01-15T14:47:06.158Z,31.90
2019-01-15T14:49:24.230Z,33.75
2019-01-15T14:51:36.476Z,38.78
2019-01-15T14:53:56.311Z,35.73
2019-01-15T14:55:59.578Z,37.88
2019-01-15T14:58:14.716Z,37.88
2019-01-15T15:00:28.948Z,38.43
2019-01-15T15:02:35.264Z,34.33
2019-01-15T15:04:44.575Z,33.55
2019-01-15T15:06:50.515Z,34.98
2019-01-15T15:09:05.833Z,36.73
2019-01-15T15:11:17.916Z,37.48
2019-01-15T15:13:29.869Z,32.50
2019-01-15T15:15:39.317Z,36.15
2019-01-15T15:17:42.598Z,31.00
2019-01-15T15:19:48.540Z,37.83
2019-01-15T15:21:54.652Z,41.53
2019-01-15T15:23:57.937Z,41.65
2019-01-15T15:26:07.250Z,32.55
2019-01-15T15:28:16.465Z,34.05
2019-01-15T15:30:31.824Z,32.90
2019-01-15T15:32:35.083Z,38.45
2019-01-15T15:34:54.857Z,37.53
2019-01-15T15:36:58.179Z,35.95
2019-01-15T15:39:13.173Z,41.48
2019-01-15T15:41:28.530Z,40.15
2019-01-15T15:43:34.471Z,35.52
2019-01-15T15:45:37.746Z,33.53
2019-01-15T15:47:41.167Z,39.15
2019-01-15T15:49:50.504Z,32.25
2019-01-15T15:52:10.061Z,42.85
2019-01-15T15:54:29.689Z,33.80
2019-01-15T15:56:32.974Z,44.65
2019-01-15T15:58:36.235Z,37.95
2019-01-15T16:00:56.100Z,37.00
2019-01-15T16:02:59.593Z,33.70
2019-01-15T16:05:02.853Z,42.27
2019-01-15T16:07:15.204Z,29.65
2019-01-15T16:09:21.195Z,33.15
2019-01-15T16:11:30.336Z,38.85
2019-01-15T16:13:50.180Z,37.10
2019-01-15T16:15:56.075Z,29.05
2019-01-15T16:18:01.968Z,30.65
2019-01-15T16:20:11.796Z,30.50
2019-01-15T16:22:26.832Z,32.25
2019-01-15T16:24:38.898Z,29.15
2019-01-15T16:26:45.148Z,26.30
2019-01-15T16:28:51.365Z,32.25
2019-01-15T16:31:03.643Z,28.20
2019-01-15T16:33:21.890Z,28.17
2019-01-15T16:35:41.728Z,25.53
2019-01-15T16:37:53.720Z,28.07
2019-01-15T16:40:08.885Z,26.50
2019-01-15T16:42:29.994Z,28.23
2019-01-15T16:44:36.190Z,29.63
2019-01-15T16:46:48.305Z,29.27
2019-01-15T16:48:51.565Z,24.70
2019-01-15T16:50:54.870Z,28.62
2019-01-15T16:53:14.866Z,29.40
2019-01-15T16:55:20.891Z,31.00
2019-01-15T16:57:33.281Z,33.23
2019-01-15T16:59:53.055Z,25.77
2019-01-15T17:02:01.868Z,29.17
2019-01-15T17:04:10.894Z,24.67
2019-01-15T17:06:16.939Z,29.13
2019-01-15T17:08:22.923Z,24.27
2019-01-15T17:10:44.354Z,27.90
2019-01-15T17:12:50.955Z,24.93
2019-01-15T17:15:06.178Z,24.23
2019-01-15T17:17:09.513Z,23.27
2019-01-15T17:19:15.401Z,24.77
2019-01-15T17:21:24.482Z,25.77
2019-01-15T17:23:30.767Z,22.53
2019-01-15T17:25:48.854Z,24.40
2019-01-15T17:28:04.173Z,23.13
2019-01-15T17:30:17.841Z,21.37
2019-01-15T17:32:33.031Z,27.23
2019-01-15T17:34:36.291Z,23.73
2019-01-15T17:36:48.951Z,20.93
2019-01-15T17:39:08.690Z,22.60
2019-01-15T17:41:20.670Z,22.33
2019-01-15T17:43:41.830Z,22.77
2019-01-15T17:46:01.317Z,19.50
2019-01-15T17:48:07.748Z,22.53
2019-01-15T17:50:22.143Z,20.77
2019-01-15T17:52:28.299Z,18.80
2019-01-15T17:54:43.323Z,19.43
2019-01-15T17:56:55.392Z,21.57
2019-01-15T17:59:15.170Z,18.90
2019-01-15T18:01:36.315Z,21.53
2019-01-15T18:03:39.658Z,19.60
2019-01-15T18:05:59.469Z,19.80
2019-01-15T18:08:05.416Z,21.67
2019-01-15T18:10:16.376Z,20.20
2019-01-15T18:12:36.043Z,17.60
2019-01-15T18:14:55.742Z,18.60
2019-01-15T18:17:04.697Z,19.70
2019-01-15T18:19:13.808Z,19.13
2019-01-15T18:21:17.075Z,23.20
2019-01-15T18:23:36.983Z,19.67
2019-01-15T18:25:46.101Z,22.00
2019-01-15T18:27:55.258Z,19.63
2019-01-15T18:30:01.438Z,18.20
2019-01-15T18:32:16.505Z,19.43
2019-01-15T18:34:25.650Z,19.33
2019-01-15T18:36:45.215Z,22.40
2019-01-15T18:38:51.171Z,17.70
2019-01-15T18:41:10.936Z,20.00
2019-01-15T18:43:19.889Z,21.07
2019-01-15T18:45:23.165Z,21.67
2019-01-15T18:47:41.270Z,18.90
2019-01-15T18:50:01.132Z,25.23
2019-01-15T18:52:04.518Z,26.40
2019-01-15T18:54:13.467Z,22.50
2019-01-15T18:56:25.534Z,26.50
2019-01-15T18:58:28.871Z,28.00
2019-01-15T19:00:50.314Z,27.47
2019-01-15T19:03:10.076Z,28.57
2019-01-15T19:05:19.204Z,37.93
2019-01-15T19:07:34.418Z,33.90
2019-01-15T19:09:54.274Z,39.63
2019-01-15T19:11:57.612Z,37.60
2019-01-15T19:14:01.217Z,36.60
2019-01-15T19:16:04.585Z,36.90
2019-01-15T19:18:07.841Z,37.97
2019-01-15T19:20:27.770Z,38.37
2019-01-15T19:22:31.032Z,34.07
2019-01-15T19:24:52.431Z,35.67
2019-01-15T19:27:13.767Z,37.60
2019-01-15T19:29:19.915Z,36.50
2019-01-15T19:31:28.876Z,40.70
2019-01-15T19:33:34.775Z,38.37
2019-01-15T19:35:38.039Z,40.40
2019-01-15T19:37:41.378Z,40.57
2019-01-15T19:39:59.685Z,38.53
2019-01-15T19:42:19.219Z,38.60
2019-01-15T19:44:22.563Z,38.90
2019-01-15T19:46:37.517Z,44.17
2019-01-15T19:48:40.787Z,46.13
2019-01-15T19:50:44.113Z,43.70
2019-01-15T19:53:00.764Z,40.30
2019-01-15T19:55:06.924Z,47.90
2019-01-15T19:57:16.141Z,38.60
2019-01-15T19:59:22.286Z,41.47
2019-01-15T20:01:34.620Z,38.70
2019-01-15T20:03:46.609Z,40.63
2019-01-15T20:05:49.885Z,42.10
2019-01-15T20:08:04.923Z,36.97
2019-01-15T20:10:19.873Z,37.30
2019-01-15T20:12:25.822Z,38.00
2019-01-15T20:14:34.869Z,42.80
2019-01-15T20:16:56.398Z,38.10
2019-01-15T20:18:59.680Z,37.17
2019-01-15T20:21:02.966Z,40.10
2019-01-15T20:23:06.296Z,35.60
2019-01-15T20:25:15.426Z,33.70
2019-01-15T20:27:36.787Z,34.50
2019-01-15T20:29:56.590Z,37.27
2019-01-15T20:31:59.913Z,36.77
2019-01-15T20:34:19.606Z,37.23
2019-01-15T20:36:31.754Z,38.23
2019-01-15T20:38:35.044Z,38.30
2019-01-15T20:40:50.346Z,35.47
2019-01-15T20:43:10.076Z,37.60
2019-01-15T20:45:16.582Z,34.03
2019-01-15T20:47:36.557Z,37.57
2019-01-15T20:49:48.779Z,34.70
2019-01-15T20:52:01.176Z,37.97
2019-01-15T20:54:11.033Z,41.27
2019-01-15T20:56:29.270Z,39.43
2019-01-15T20:58:32.646Z,38.33
2019-01-15T21:00:52.329Z,44.67
2019-01-15T21:03:07.453Z,35.40
2019-01-15T21:05:10.716Z,33.80
2019-01-15T21:07:13.992Z,38.87
2019-01-15T21:09:35.190Z,37.17
2019-01-15T21:11:53.629Z,33.53
2019-01-15T21:14:09.218Z,34.47
2019-01-15T21:16:15.266Z,34.97
2019-01-15T21:18:19.784Z,36.63
2019-01-15T21:20:23.320Z,35.53
2019-01-15T21:22:42.881Z,32.97
2019-01-15T21:24:46.160Z,34.17
2019-01-15T21:26:55.225Z,35.10
2019-01-15T21:28:58.707Z,35.33
2019-01-15T21:31:14.059Z,39.37
2019-01-15T21:33:20.255Z,36.27
2019-01-15T21:35:26.421Z,32.27
2019-01-15T21:37:46.053Z,35.17
2019-01-15T21:39:49.385Z,39.60
2019-01-15T21:42:07.477Z,42.17
2019-01-15T21:44:16.642Z,36.00
2019-01-15T21:46:28.990Z,37.37
2019-01-15T21:48:35.338Z,36.53
2019-01-15T21:50:56.672Z,37.53
2019-01-15T21:53:05.672Z,35.60
2019-01-15T21:55:25.493Z,33.93
2019-01-15T21:57:45.048Z,40.83
2019-01-15T21:59:48.373Z,39.60
2019-01-15T22:01:54.594Z,40.53
2019-01-15T22:04:00.911Z,41.13
2019-01-15T22:06:04.441Z,40.73
2019-01-15T22:08:16.428Z,40.57
2019-01-15T22:10:19.789Z,40.83
2019-01-15T22:12:31.798Z,39.40
2019-01-15T22:14:44.017Z,40.80
2019-01-15T22:17:02.172Z,39.90
2019-01-15T22:19:21.970Z,37.97
2019-01-15T22:21:25.247Z,45.53
2019-01-15T22:23:37.549Z,38.50
2019-01-15T22:25:57.146Z,38.60
2019-01-15T22:28:16.672Z,34.47
2019-01-15T22:30:20.009Z,38.13
2019-01-15T22:32:23.273Z,42.10
2019-01-15T22:34:32.420Z,38.33
2019-01-15T22:36:38.613Z,38.77
2019-01-15T22:38:58.153Z,39.10
2019-01-15T22:41:04.053Z,35.93
2019-01-15T22:43:16.123Z,36.23
2019-01-15T22:45:25.332Z,41.10
2019-01-15T22:47:28.660Z,40.67
2019-01-15T22:49:37.603Z,40.40
2019-01-15T22:51:40.879Z,44.37
2019-01-15T22:53:44.299Z,44.57
2019-01-15T22:55:47.570Z,38.03
2019-01-15T22:57:56.586Z,40.50
2019-01-15T22:59:59.913Z,40.13
2019-01-15T23:02:19.457Z,41.27
2019-01-15T23:04:22.719Z,32.97
2019-01-15T23:06:26.353Z,35.47
2019-01-15T23:08:47.429Z,38.43
2019-01-15T23:11:08.437Z,41.20
2019-01-15T23:13:17.755Z,40.17
2019-01-15T23:15:21.308Z,40.97
2019-01-15T23:17:24.570Z,36.93
2019-01-15T23:19:44.448Z,37.53
2019-01-15T23:21:59.451Z,38.27
2019-01-15T23:24:02.719Z,43.60
2019-01-15T23:26:22.299Z,37.17
2019-01-15T23:28:37.577Z,36.90
2019-01-15T23:30:57.071Z,35.13
2019-01-15T23:33:00.338Z,39.27
2019-01-15T23:35:03.691Z,42.73
2019-01-15T23:37:07.026Z,43.17
2019-01-15T23:39:13.238Z,45.30
2019-01-15T23:41:16.511Z,39.37
2019-01-15T23:43:25.573Z,41.10
2019-01-15T23:45:34.632Z,40.33
2019-01-15T23:47:49.904Z,38.80
2019-01-15T23:50:04.975Z,39.77
2019-01-15T23:52:08.329Z,47.40
2019-01-15T23:54:11.606Z,40.70
2019-01-15T23:56:14.872Z,36.30
2019-01-15T23:58:30.385Z,33.37
